createdAt,value
2018-07-08T00:00:48.833Z,7.95
2018-07-08T00:03:17.161Z,8.58
2018-07-08T00:05:45.492Z,9.65
2018-07-08T00:08:13.892Z,9.75
2018-07-08T00:10:50.433Z,8.03
2018-07-08T00:13:18.560Z,9.15
2018-07-08T00:15:46.896Z,9.95
2018-07-08T00:18:15.537Z,9.43
2018-07-08T00:20:43.909Z,9.45
2018-07-08T00:23:12.480Z,9.70
2018-07-08T00:25:40.850Z,9.85
2018-07-08T00:28:09.162Z,8.48
2018-07-08T00:30:37.532Z,8.63
2018-07-08T00:33:06.067Z,8.60
2018-07-08T00:35:34.432Z,8.68
2018-07-08T00:38:02.849Z,7.75
2018-07-08T00:40:31.253Z,7.45
2018-07-08T00:42:59.589Z,6.47
2018-07-08T00:45:27.991Z,6.53
2018-07-08T00:47:56.324Z,6.17
2018-07-08T00:50:24.677Z,6.08
2018-07-08T00:52:52.980Z,6.10
2018-07-08T00:55:21.353Z,5.10
2018-07-08T00:57:49.653Z,5.70
2018-07-08T01:00:34.205Z,5.70
2018-07-08T01:03:03.770Z,4.83
2018-07-08T01:05:32.161Z,5.92
2018-07-08T01:08:01.137Z,5.67
2018-07-08T01:10:29.613Z,5.60
2018-07-08T01:12:58.464Z,5.25
2018-07-08T01:15:26.936Z,5.47
2018-07-08T01:17:55.289Z,5.08
2018-07-08T01:20:23.756Z,5.33
2018-07-08T01:22:52.548Z,5.05
2018-07-08T01:25:32.248Z,5.60
2018-07-08T01:28:00.292Z,5.08
2018-07-08T01:30:28.649Z,5.37
2018-07-08T01:32:56.949Z,4.62
2018-07-08T01:35:25.296Z,5.37
2018-07-08T01:37:53.621Z,5.85
2018-07-08T01:40:21.995Z,6.30
2018-07-08T01:42:50.289Z,5.35
2018-07-08T01:45:18.616Z,5.10
2018-07-08T01:47:46.973Z,6.00
2018-07-08T01:50:15.299Z,4.85
2018-07-08T01:52:43.645Z,4.87
2018-07-08T01:55:11.992Z,4.80
2018-07-08T01:57:40.369Z,5.60
2018-07-08T02:00:08.412Z,5.33
2018-07-08T02:02:36.783Z,5.65
2018-07-08T02:05:05.404Z,4.90
2018-07-08T02:07:33.776Z,5.30
2018-07-08T02:10:02.102Z,5.55
2018-07-08T02:12:30.496Z,5.50
2018-07-08T02:14:58.861Z,5.12
2018-07-08T02:17:27.418Z,5.42
2018-07-08T02:19:55.960Z,5.45
2018-07-08T02:22:24.340Z,4.50
2018-07-08T02:24:52.681Z,5.75
2018-07-08T02:27:21.777Z,5.15
2018-07-08T02:29:50.090Z,5.00
2018-07-08T02:32:18.440Z,4.97
2018-07-08T02:34:46.773Z,5.00
2018-07-08T02:37:15.357Z,4.62
2018-07-08T02:39:44.060Z,5.17
2018-07-08T02:42:12.406Z,5.22
2018-07-08T02:44:40.790Z,4.95
2018-07-08T02:47:09.530Z,5.85
2018-07-08T02:49:37.877Z,5.45
2018-07-08T02:52:06.234Z,5.72
2018-07-08T02:54:34.536Z,5.33
2018-07-08T02:57:02.888Z,5.65
2018-07-08T02:59:31.195Z,6.05
2018-07-08T03:01:59.559Z,5.70
2018-07-08T03:04:27.856Z,5.62
2018-07-08T03:06:56.196Z,5.65
2018-07-08T03:09:24.513Z,5.33
2018-07-08T03:11:52.852Z,5.28
2018-07-08T03:14:21.156Z,5.20
2018-07-08T03:16:49.490Z,5.00
2018-07-08T03:19:17.824Z,5.53
2018-07-08T03:21:46.165Z,5.10
2018-07-08T03:24:14.576Z,5.12
2018-07-08T03:26:42.912Z,5.47
2018-07-08T03:29:11.249Z,5.35
2018-07-08T03:31:39.321Z,5.80
2018-07-08T03:34:07.644Z,5.80
2018-07-08T03:36:35.955Z,5.65
2018-07-08T03:39:05.661Z,5.53
2018-07-08T03:41:34.058Z,5.33
2018-07-08T03:44:02.416Z,4.92
2018-07-08T03:46:30.716Z,5.42
2018-07-08T03:48:59.071Z,5.08
2018-07-08T03:51:27.385Z,5.90
2018-07-08T03:53:55.720Z,5.30
2018-07-08T03:56:24.021Z,5.10
2018-07-08T03:58:52.352Z,5.62
2018-07-08T04:01:20.857Z,5.50
2018-07-08T04:03:49.241Z,5.55
2018-07-08T04:06:17.548Z,5.25
2018-07-08T04:08:45.929Z,4.97
2018-07-08T04:11:14.268Z,5.10
2018-07-08T04:13:42.610Z,5.35
2018-07-08T04:16:11.565Z,5.00
2018-07-08T04:18:39.945Z,4.87
2018-07-08T04:21:08.244Z,5.08
2018-07-08T04:23:36.581Z,4.97
2018-07-08T04:26:04.954Z,5.10
2018-07-08T04:28:33.304Z,5.17
2018-07-08T04:31:01.640Z,5.92
2018-07-08T04:33:29.968Z,5.58
2018-07-08T04:35:58.285Z,5.55
2018-07-08T04:38:26.640Z,5.67
2018-07-08T04:40:54.953Z,5.60
2018-07-08T04:43:23.315Z,5.65
2018-07-08T04:45:51.628Z,5.60
2018-07-08T04:48:19.974Z,6.28
2018-07-08T04:50:48.305Z,5.85
2018-07-08T04:53:16.652Z,5.87
2018-07-08T04:55:44.949Z,5.67
2018-07-08T04:58:13.299Z,5.80
2018-07-08T05:00:41.643Z,6.28
2018-07-08T05:03:10.001Z,6.03
2018-07-08T05:05:38.033Z,5.90
2018-07-08T05:08:06.376Z,5.22
2018-07-08T05:10:34.673Z,5.58
2018-07-08T05:13:03.010Z,5.40
2018-07-08T05:15:31.317Z,5.80
2018-07-08T05:17:59.669Z,6.00
2018-07-08T05:20:27.782Z,5.67
2018-07-08T05:22:56.096Z,5.62
2018-07-08T05:25:24.393Z,5.78
2018-07-08T05:27:52.690Z,4.67
2018-07-08T05:30:21.032Z,6.67
2018-07-08T05:32:49.333Z,5.25
2018-07-08T05:35:17.673Z,5.17
2018-07-08T05:37:45.969Z,5.67
2018-07-08T05:40:14.333Z,5.45
2018-07-08T05:42:42.649Z,5.55
2018-07-08T05:45:11.022Z,5.83
2018-07-08T05:47:39.322Z,5.50
2018-07-08T05:50:07.778Z,6.22
2018-07-08T05:52:36.128Z,5.55
2018-07-08T05:55:04.489Z,5.78
2018-07-08T05:57:32.792Z,5.83
2018-07-08T06:00:01.127Z,6.03
2018-07-08T06:02:29.457Z,6.50
2018-07-08T06:04:57.804Z,5.37
2018-07-08T06:07:26.108Z,6.47
2018-07-08T06:09:54.505Z,5.08
2018-07-08T06:12:22.556Z,5.30
2018-07-08T06:14:50.905Z,5.75
2018-07-08T06:17:19.203Z,5.55
2018-07-08T06:22:17.624Z,5.70
2018-07-08T06:24:45.722Z,5.00
2018-07-08T06:27:14.030Z,5.08
2018-07-08T06:29:42.379Z,4.97
2018-07-08T06:32:10.717Z,5.92
2018-07-08T06:34:39.061Z,5.53
2018-07-08T06:37:07.400Z,5.87
2018-07-08T06:39:35.767Z,6.10
2018-07-08T06:42:04.121Z,5.50
2018-07-08T06:44:32.540Z,5.50
2018-07-08T06:47:00.873Z,5.15
2018-07-08T06:49:29.213Z,4.87
2018-07-08T06:51:57.533Z,4.75
2018-07-08T06:54:25.872Z,4.75
2018-07-08T06:56:54.206Z,5.58
2018-07-08T06:59:22.581Z,4.20
2018-07-08T07:01:50.893Z,4.53
2018-07-08T07:04:18.992Z,4.20
2018-07-08T07:06:47.408Z,4.80
2018-07-08T07:09:15.837Z,4.95
2018-07-08T07:11:44.173Z,4.45
2018-07-08T07:14:12.486Z,4.75
2018-07-08T07:16:40.833Z,4.47
2018-07-08T07:19:09.189Z,4.47
2018-07-08T07:21:37.565Z,5.00
2018-07-08T07:24:06.173Z,4.67
2018-07-08T07:26:34.537Z,4.85
2018-07-08T07:29:02.849Z,4.08
2018-07-08T07:31:31.224Z,4.25
2018-07-08T07:33:59.576Z,3.65
2018-07-08T07:36:28.016Z,4.83
2018-07-08T07:38:56.393Z,4.17
2018-07-08T07:41:24.740Z,4.40
2018-07-08T07:43:53.079Z,4.42
2018-07-08T07:46:21.426Z,4.50
2018-07-08T07:48:49.745Z,4.42
2018-07-08T07:51:18.119Z,4.15
2018-07-08T07:53:46.436Z,4.10
2018-07-08T07:56:14.777Z,4.10
2018-07-08T07:58:43.101Z,4.08
2018-07-08T08:01:11.470Z,4.55
2018-07-08T08:03:39.789Z,4.47
2018-07-08T08:06:08.156Z,4.45
2018-07-08T08:08:36.559Z,4.40
2018-07-08T08:11:04.841Z,3.90
2018-07-08T08:13:33.161Z,3.80
2018-07-08T08:16:01.518Z,4.00
2018-07-08T08:18:29.888Z,4.40
2018-07-08T08:20:58.313Z,3.83
2018-07-08T08:23:26.605Z,4.03
2018-07-08T08:25:54.941Z,4.10
2018-07-08T08:28:23.259Z,4.08
2018-07-08T08:30:51.617Z,4.10
2018-07-08T08:33:20.293Z,4.10
2018-07-08T08:35:48.624Z,3.33
2018-07-08T08:38:17.011Z,3.63
2018-07-08T08:40:45.289Z,3.50
2018-07-08T08:43:13.593Z,3.60
2018-07-08T08:45:41.945Z,3.60
2018-07-08T08:48:10.240Z,3.33
2018-07-08T08:50:38.593Z,3.40
2018-07-08T08:53:06.908Z,4.07
2018-07-08T08:55:35.249Z,2.90
2018-07-08T08:58:03.562Z,3.20
2018-07-08T09:00:31.917Z,3.57
2018-07-08T09:03:00.224Z,3.67
2018-07-08T09:05:28.559Z,3.90
2018-07-08T09:07:56.849Z,3.73
2018-07-08T09:10:25.206Z,4.07
2018-07-08T09:12:53.533Z,3.63
2018-07-08T09:15:21.841Z,4.03
2018-07-08T09:17:50.228Z,3.07
2018-07-08T09:20:18.593Z,3.40
2018-07-08T09:22:46.929Z,3.00
2018-07-08T09:25:15.222Z,3.90
2018-07-08T09:27:43.560Z,3.17
2018-07-08T09:30:11.881Z,3.60
2018-07-08T09:32:40.224Z,4.77
2018-07-08T09:35:08.539Z,3.80
2018-07-08T09:37:36.893Z,3.83
2018-07-08T09:40:05.233Z,3.83
2018-07-08T09:42:33.592Z,3.50
2018-07-08T09:45:01.911Z,3.20
2018-07-08T09:47:30.252Z,3.90
2018-07-08T09:49:58.557Z,3.30
2018-07-08T09:52:26.956Z,3.47
2018-07-08T09:54:55.229Z,2.90
2018-07-08T09:57:23.557Z,3.80
2018-07-08T09:59:51.862Z,3.90
2018-07-08T10:02:20.209Z,3.50
2018-07-08T10:04:48.538Z,3.40
2018-07-08T10:07:16.906Z,2.80
2018-07-08T10:09:45.209Z,2.93
2018-07-08T10:12:13.544Z,3.70
2018-07-08T10:14:41.840Z,3.50
2018-07-08T10:17:10.181Z,3.70
2018-07-08T10:19:38.620Z,3.70
2018-07-08T10:22:06.883Z,3.33
2018-07-08T10:24:35.180Z,3.90
2018-07-08T10:27:50.752Z,3.80
2018-07-08T10:30:19.106Z,3.57
2018-07-08T10:32:47.449Z,3.87
2018-07-08T10:35:27.012Z,4.27
2018-07-08T10:37:55.373Z,5.57
2018-07-08T10:40:23.693Z,27.83
2018-07-08T10:42:52.044Z,6.23
2018-07-08T10:45:20.353Z,3.47
2018-07-08T10:47:48.693Z,4.07
2018-07-08T10:50:16.989Z,4.43
2018-07-08T10:52:45.325Z,3.70
2018-07-08T10:55:13.632Z,3.80
2018-07-08T10:57:42.530Z,3.93
2018-07-08T11:00:11.237Z,3.60
2018-07-08T11:02:39.577Z,4.17
2018-07-08T11:05:07.908Z,3.53
2018-07-08T11:07:36.256Z,4.47
2018-07-08T11:10:04.596Z,3.50
2018-07-08T11:12:32.667Z,3.50
2018-07-08T11:15:00.989Z,3.37
2018-07-08T11:17:29.353Z,3.47
2018-07-08T11:19:57.704Z,4.97
2018-07-08T11:22:26.097Z,3.50
2018-07-08T11:24:54.144Z,3.53
2018-07-08T11:27:22.490Z,4.57
2018-07-08T11:29:50.838Z,3.50
2018-07-08T11:32:19.148Z,3.30
2018-07-08T11:34:47.973Z,3.43
2018-07-08T11:37:17.141Z,3.40
2018-07-08T11:39:45.574Z,3.23
2018-07-08T11:42:13.904Z,3.80
2018-07-08T11:44:42.281Z,4.27
2018-07-08T11:47:10.600Z,5.20
2018-07-08T11:49:38.980Z,4.53
2018-07-08T11:52:07.418Z,3.50
2018-07-08T11:54:35.793Z,4.47
2018-07-08T11:57:04.157Z,5.50
2018-07-08T11:59:32.506Z,5.53
2018-07-08T12:02:00.807Z,3.30
2018-07-08T12:04:29.155Z,4.07
2018-07-08T12:06:57.490Z,3.37
2018-07-08T12:09:25.857Z,3.73
2018-07-08T12:11:54.167Z,3.43
2018-07-08T12:14:22.546Z,3.83
2018-07-08T12:16:50.856Z,3.77
2018-07-08T12:19:18.965Z,4.07
2018-07-08T12:21:47.317Z,4.20
2018-07-08T12:24:15.789Z,3.63
2018-07-08T12:26:43.832Z,3.73
2018-07-08T12:29:12.193Z,4.10
2018-07-08T12:31:40.546Z,3.47
2018-07-08T12:34:08.914Z,4.20
2018-07-08T12:36:37.688Z,3.80
2018-07-08T12:39:08.417Z,3.77
2018-07-08T12:41:36.849Z,3.50
2018-07-08T12:44:05.264Z,3.37
2018-07-08T12:46:33.599Z,3.90
2018-07-08T12:49:03.236Z,3.30
2018-07-08T12:51:31.649Z,3.70
2018-07-08T12:54:03.322Z,4.57
2018-07-08T12:56:31.661Z,3.50
2018-07-08T12:59:00.183Z,3.67
2018-07-08T13:01:28.417Z,3.40
2018-07-08T13:03:56.768Z,3.47
2018-07-08T13:06:25.197Z,3.37
2018-07-08T13:08:53.473Z,3.03
2018-07-08T13:11:21.816Z,3.50
2018-07-08T13:13:50.176Z,3.63
2018-07-08T13:16:18.497Z,2.90
2018-07-08T13:18:47.063Z,3.60
2018-07-08T13:21:15.372Z,3.00
2018-07-08T13:23:43.744Z,3.50
2018-07-08T13:26:12.070Z,3.13
2018-07-08T13:28:40.082Z,3.50
2018-07-08T13:31:08.469Z,3.40
2018-07-08T13:33:36.786Z,2.87
2018-07-08T13:36:05.173Z,3.60
2018-07-08T13:38:33.493Z,2.90
2018-07-08T13:41:01.862Z,2.80
2018-07-08T13:43:30.193Z,3.80
2018-07-08T13:45:58.540Z,3.50
2018-07-08T13:48:26.860Z,3.37
2018-07-08T13:50:54.936Z,2.47
2018-07-08T13:53:23.248Z,3.00
2018-07-08T13:55:53.237Z,3.57
2018-07-08T13:58:21.650Z,2.87
2018-07-08T14:00:50.121Z,2.50
2018-07-08T14:03:18.420Z,2.80
2018-07-08T14:05:46.775Z,2.60
2018-07-08T14:08:15.100Z,2.80
2018-07-08T14:10:43.573Z,2.53
2018-07-08T14:13:12.721Z,2.30
2018-07-08T14:15:41.075Z,2.77
2018-07-08T14:18:09.394Z,2.77
2018-07-08T14:20:37.906Z,3.10
2018-07-08T14:23:06.432Z,2.90
2018-07-08T14:25:34.844Z,2.40
2018-07-08T14:28:03.137Z,2.47
2018-07-08T14:30:31.531Z,3.10
2018-07-08T14:33:00.353Z,2.47
2018-07-08T14:35:28.858Z,3.13
2018-07-08T14:37:57.191Z,2.43
2018-07-08T14:40:25.532Z,2.63
2018-07-08T14:42:53.845Z,2.67
2018-07-08T14:45:22.196Z,2.67
2018-07-08T14:47:50.521Z,2.60
2018-07-08T14:50:18.908Z,2.63
2018-07-08T14:52:47.324Z,2.80
2018-07-08T14:55:15.605Z,2.90
2018-07-08T14:57:43.908Z,2.77
2018-07-08T15:00:12.248Z,2.43
2018-07-08T15:02:40.612Z,3.00
2018-07-08T15:05:08.958Z,3.23
2018-07-08T15:07:37.256Z,3.13
2018-07-08T15:10:05.632Z,2.63
2018-07-08T15:12:33.948Z,3.00
2018-07-08T15:15:02.319Z,3.27
2018-07-08T15:17:30.661Z,3.30
2018-07-08T15:19:59.032Z,2.53
2018-07-08T15:22:27.369Z,2.67
2018-07-08T15:24:55.672Z,3.30
2018-07-08T15:27:24.045Z,2.67
2018-07-08T15:29:52.384Z,2.47
2018-07-08T15:32:20.741Z,3.20
2018-07-08T15:34:49.044Z,2.57
2018-07-08T15:37:17.388Z,3.17
2018-07-08T15:39:45.708Z,2.90
2018-07-08T15:42:14.092Z,2.97
2018-07-08T15:44:42.409Z,3.53
2018-07-08T15:47:10.783Z,2.87
2018-07-08T15:49:39.167Z,3.27
2018-07-08T15:52:07.489Z,3.00
2018-07-08T15:54:35.834Z,3.00
2018-07-08T15:57:04.197Z,2.77
2018-07-08T15:59:32.577Z,3.30
2018-07-08T16:02:00.913Z,2.47
2018-07-08T16:04:29.307Z,2.73
2018-07-08T16:06:57.649Z,2.50
2018-07-08T16:09:25.957Z,2.77
2018-07-08T16:11:54.333Z,2.53
2018-07-08T16:14:22.636Z,3.10
2018-07-08T16:16:51.005Z,2.23
2018-07-08T16:19:19.401Z,2.53
2018-07-08T16:21:47.753Z,2.17
2018-07-08T16:24:16.062Z,2.13
2018-07-08T16:26:44.413Z,1.77
2018-07-08T16:29:12.753Z,2.00
2018-07-08T16:31:41.096Z,2.13
2018-07-08T16:34:09.412Z,2.60
2018-07-08T16:36:37.793Z,1.90
2018-07-08T16:39:06.128Z,1.80
2018-07-08T16:41:34.464Z,2.03
2018-07-08T16:44:02.870Z,1.90
2018-07-08T16:46:31.230Z,2.33
2018-07-08T16:48:59.566Z,1.77
2018-07-08T16:51:27.949Z,2.07
2018-07-08T16:53:56.276Z,1.73
2018-07-08T16:56:24.662Z,1.63
2018-07-08T16:58:52.981Z,1.70
2018-07-08T17:01:21.360Z,1.90
2018-07-08T17:03:49.665Z,1.93
2018-07-08T17:06:18.029Z,1.73
2018-07-08T17:08:46.354Z,1.83
2018-07-08T17:11:14.669Z,2.10
2018-07-08T17:13:43.004Z,1.40
2018-07-08T17:16:11.371Z,1.77
2018-07-08T17:18:39.700Z,1.43
2018-07-08T17:21:08.084Z,1.70
2018-07-08T17:23:36.481Z,1.83
2018-07-08T17:26:04.829Z,1.40
2018-07-08T17:28:33.176Z,1.30
2018-07-08T17:31:01.506Z,1.63
2018-07-08T17:33:29.955Z,1.53
2018-07-08T17:35:58.241Z,1.70
2018-07-08T17:38:26.621Z,1.50
2018-07-08T17:40:55.006Z,1.50
2018-07-08T17:43:24.481Z,2.07
2018-07-08T17:45:52.812Z,1.57
2018-07-08T17:48:21.157Z,1.80
2018-07-08T17:50:49.578Z,1.43
2018-07-08T17:53:18.058Z,1.40
2018-07-08T17:55:46.453Z,1.60
2018-07-08T17:58:14.809Z,2.27
2018-07-08T18:00:43.180Z,1.17
2018-07-08T18:03:11.546Z,1.70
2018-07-08T18:05:40.174Z,1.70
2018-07-08T18:08:08.528Z,2.00
2018-07-08T18:10:36.849Z,1.60
2018-07-08T18:13:05.212Z,1.40
2018-07-08T18:15:33.590Z,2.00
2018-07-08T18:18:01.930Z,2.20
2018-07-08T18:20:31.008Z,1.87
2018-07-08T18:22:59.368Z,1.50
2018-07-08T18:25:27.793Z,1.70
2018-07-08T18:27:56.173Z,1.90
2018-07-08T18:30:24.488Z,1.53
2018-07-08T18:32:53.131Z,1.40
2018-07-08T18:35:21.456Z,1.83
2018-07-08T18:37:49.820Z,1.80
2018-07-08T18:40:18.116Z,1.90
2018-07-08T18:42:46.553Z,1.97
2018-07-08T18:45:14.865Z,2.00
2018-07-08T18:47:43.233Z,1.60
2018-07-08T18:50:11.553Z,1.70
2018-07-08T18:52:39.933Z,2.43
2018-07-08T18:55:08.329Z,1.50
2018-07-08T18:57:36.733Z,1.90
2018-07-08T19:00:05.613Z,2.30
2018-07-08T19:02:34.030Z,2.40
2018-07-08T19:05:02.385Z,1.90
2018-07-08T19:07:30.736Z,1.90
2018-07-08T19:09:59.104Z,2.00
2018-07-08T19:12:27.487Z,1.80
2018-07-08T19:14:55.929Z,2.30
2018-07-08T19:17:24.245Z,1.80
2018-07-08T19:19:52.666Z,2.03
2018-07-08T19:22:21.005Z,2.23
2018-07-08T19:24:49.396Z,1.83
2018-07-08T19:27:17.724Z,2.10
2018-07-08T19:29:46.092Z,2.40
2018-07-08T19:32:14.402Z,1.90
2018-07-08T19:34:42.826Z,2.50
2018-07-08T19:37:11.144Z,2.20
2018-07-08T19:39:39.663Z,2.15
2018-07-08T19:42:07.988Z,2.45
2018-07-08T19:44:42.997Z,2.42
2018-07-08T19:47:11.320Z,2.08
2018-07-08T19:49:39.685Z,2.33
2018-07-08T19:52:08.025Z,2.00
2018-07-08T19:54:36.406Z,2.40
2018-07-08T19:57:04.732Z,2.40
2018-07-08T19:59:33.154Z,1.92
2018-07-08T20:02:01.537Z,2.33
2018-07-08T20:04:29.917Z,1.90
2018-07-08T20:06:58.271Z,2.58
2018-07-08T20:09:26.666Z,2.20
2018-07-08T20:11:55.265Z,1.92
2018-07-08T20:14:23.384Z,2.15
2018-07-08T20:16:51.685Z,2.27
2018-07-08T20:19:20.076Z,2.30
2018-07-08T20:21:48.473Z,11.78
2018-07-08T20:24:16.819Z,9.73
2018-07-08T20:26:45.205Z,4.53
2018-07-08T20:29:13.596Z,2.80
2018-07-08T20:31:42.175Z,2.30
2018-07-08T20:34:10.636Z,2.83
2018-07-08T20:36:38.976Z,2.37
2018-07-08T20:39:08.045Z,2.60
2018-07-08T20:41:36.429Z,2.52
2018-07-08T20:44:04.802Z,1.85
2018-07-08T20:46:32.868Z,2.60
2018-07-08T20:49:01.263Z,2.50
2018-07-08T20:51:29.308Z,2.05
2018-07-08T20:53:57.628Z,2.17
2018-07-08T20:56:26.026Z,1.90
2018-07-08T20:58:54.365Z,1.87
2018-07-08T21:01:22.720Z,2.10
2018-07-08T21:03:51.042Z,2.05
2018-07-08T21:06:19.405Z,2.30
2018-07-08T21:08:47.766Z,2.50
2018-07-08T21:11:16.113Z,2.55
2018-07-08T21:13:44.498Z,2.20
2018-07-08T21:16:12.865Z,2.25
2018-07-08T21:18:41.233Z,1.92
2018-07-08T21:21:09.706Z,1.80
2018-07-08T21:23:38.028Z,1.95
2018-07-08T21:26:06.553Z,1.92
2018-07-08T21:28:35.245Z,2.05
2018-07-08T21:31:03.632Z,2.05
2018-07-08T21:33:31.708Z,2.40
2018-07-08T21:36:00.077Z,1.98
2018-07-08T21:38:28.716Z,1.90
2018-07-08T21:40:57.091Z,2.50
2018-07-08T21:43:25.793Z,1.82
2018-07-08T21:45:54.177Z,1.90
2018-07-08T21:48:22.484Z,2.10
2018-07-08T21:50:50.872Z,1.98
2018-07-08T21:53:19.205Z,1.77
2018-07-08T21:55:47.562Z,1.92
2018-07-08T21:58:16.068Z,1.90
2018-07-08T22:01:21.554Z,2.17
2018-07-08T22:03:50.508Z,1.90
2018-07-08T22:06:19.536Z,1.95
2018-07-08T22:08:47.938Z,2.58
2018-07-08T22:11:16.350Z,1.90
2018-07-08T22:13:44.944Z,2.05
2018-07-08T22:16:13.305Z,1.90
2018-07-08T22:18:41.633Z,1.90
2018-07-08T22:21:10.420Z,2.85
2018-07-08T22:23:38.722Z,2.33
2018-07-08T22:26:07.076Z,2.67
2018-07-08T22:28:35.381Z,2.15
2018-07-08T22:31:03.774Z,2.27
2018-07-08T22:33:32.092Z,2.02
2018-07-08T22:36:00.428Z,1.92
2018-07-08T22:38:28.756Z,2.20
2018-07-08T22:40:57.104Z,2.20
2018-07-08T22:43:25.418Z,1.65
2018-07-08T22:45:53.777Z,2.10
2018-07-08T22:48:22.178Z,2.05
2018-07-08T22:50:50.494Z,2.00
2018-07-08T22:53:18.569Z,1.80
2018-07-08T22:55:46.611Z,1.75
2018-07-08T22:58:14.952Z,1.60
2018-07-08T23:00:54.731Z,1.57
2018-07-08T23:03:35.100Z,2.20
2018-07-08T23:06:03.410Z,2.17
2018-07-08T23:08:31.749Z,2.10
2018-07-08T23:11:00.201Z,1.95
2018-07-08T23:13:28.546Z,1.90
2018-07-08T23:15:56.877Z,1.90
2018-07-08T23:18:25.213Z,1.70
2018-07-08T23:20:53.570Z,1.77
2018-07-08T23:23:21.931Z,1.65
2018-07-08T23:25:50.292Z,1.35
2018-07-08T23:28:18.635Z,1.80
2018-07-08T23:30:46.981Z,2.00
2018-07-08T23:33:15.672Z,1.90
2018-07-08T23:35:43.976Z,1.70
2018-07-08T23:38:12.341Z,1.92
2018-07-08T23:40:40.367Z,2.10
2018-07-08T23:43:08.700Z,1.80
2018-07-08T23:45:37.032Z,1.80
2018-07-08T23:48:05.681Z,1.60
2018-07-08T23:50:33.736Z,2.20
2018-07-08T23:53:02.069Z,1.80
2018-07-08T23:55:30.409Z,1.82
2018-07-08T23:57:58.765Z,1.80
